Latest Weather Observations for Southern Cross Airport

IDW60801

Issued at 8:03 pm WST Wednesday 24 August 2016 (issued every 30 minutes, with the page automatically refreshed every 10 minutes)

About weather observations | Map of weather stations | Latest weather observations for WA | Other Formats
Station Details ID: 012320 Name: SOUTHERN CROSS AIRFIELD Lat: -31.24 Lon: 119.36 Height: 347.4 m
Data from the previous 72 hours. | See also: Recent months at Southern Cross Airport
Date/Time
WST
Temp
°C
App
Temp
°C
Dew
Point
°C
Rel
Hum
%
Delta-T
°C
Wind Press
QNH
hPa
Press
MSL
hPa
Rain since
9am
mm
Dir  Spd
km/h
Gust
km/h
Spd
kts
Gust
kts
24/08:00pm 8.7 4.5 1.6 61 3.0 ESE 13 15 7 8 1024.5 1024.6 0.0
24/07:30pm 8.5 4.3 1.6 62 2.9 ESE 13 17 7 9 1024.4 1024.5 0.0
24/07:00pm 10.0 5.8 1.4 55 3.6 SE 13 15 7 8 1024.1 1024.2 0.0
24/06:30pm 11.1 6.1 1.1 50 4.3 SE 17 17 9 9 1023.9 1024.0 0.0
24/06:00pm 12.0 7.3 1.1 47 4.7 SE 15 17 8 9 1023.6 1023.8 0.0
24/05:30pm 13.9 9.2 0.9 41 5.7 SE 15 17 8 9 1023.4 1023.6 0.0
24/05:00pm 15.1 10.3 0.2 36 6.4 SE 15 24 8 13 1023.4 1023.6 0.0
24/04:30pm 15.4 10.7 0.8 37 6.4 S 15 20 8 11 1023.3 1023.5 0.0
24/04:00pm 15.5 10.7 0.5 36 6.5 SE 15 22 8 12 1023.1 1023.2 0.0
24/03:30pm 15.7 11.8 1.1 37 6.5 SE 11 20 6 11 1023.0 1023.1 0.0
24/03:00pm 15.6 11.3 1.0 37 6.4 SSE 13 24 7 13 1022.9 1023.0 0.0
24/02:30pm 15.7 11.5 1.4 38 6.4 SSE 13 24 7 13 1022.8 1022.9 0.0
24/02:00pm 15.2 11.0 1.7 40 6.0 E 13 22 7 12 1022.7 1022.8 0.0
24/01:30pm 14.7 10.5 1.9 42 5.7 SE 13 22 7 12 1023.0 1023.1 0.0
24/01:00pm 14.6 10.9 2.2 43 5.6 SE 11 22 6 12 1023.2 1023.4 0.0
24/12:30pm 13.9 10.1 1.9 44 5.3 ESE 11 20 6 11 1023.8 1023.9 0.0
24/12:00pm 13.3 9.9 1.9 46 5.0 ESE 9 17 5 9 1024.3 1024.4 0.0
24/11:30am 12.9 9.1 1.9 47 4.8 E 11 19 6 10 1024.7 1024.8 0.0
24/11:00am 12.5 8.4 2.4 50 4.5 E 13 22 7 12 1025.0 1025.1 0.0
24/10:30am 11.9 8.3 3.2 55 3.9 E 11 20 6 11 1025.2 1025.3 0.0
24/10:00am 11.1 7.3 3.9 61 3.2 E 13 24 7 13 1025.4 1025.5 0.0
24/09:30am 10.1 5.5 3.8 65 2.8 E 17 20 9 11 1025.5 1025.6 0.0
24/09:00am 8.1 4.3 4.1 76 1.8 SE 13 17 7 9 1025.5 1025.6 0.0
24/08:30am 4.9 2.1 2.9 87 0.8 SSW 7 9 4 5 1025.5 1025.6 0.0
24/08:00am 2.5 -0.6 1.3 92 0.5 S 7 9 4 5 1025.4 1025.5 0.0
24/07:30am 0.2 -3.0 -0.6 94 0.3 SSW 6 7 3 4 1025.2 1025.3 0.0
24/07:00am -1.4 -5.4 -2.2 94 0.2 SW 9 9 5 5 1025.0 1025.1 0.0
24/06:30am -1.6 -5.1 -2.6 93 0.3 SSW 6 9 3 5 1024.9 1025.0 0.0
24/06:00am -1.4 -3.7 -2.4 93 0.3 CALM 0 0 0 0 1024.7 1024.8 0.0
24/05:30am -0.9 -4.5 -1.9 93 0.3 SSW 7 9 4 5 1024.5 1024.6 0.0
24/05:00am -0.7 -4.2 -1.7 93 0.3 SSW 7 9 4 5 1024.4 1024.5 0.0
24/04:30am -0.8 -4.7 -1.8 93 0.3 SSW 9 9 5 5 1024.3 1024.4 0.0
24/04:00am -0.8 -4.7 -1.8 93 0.3 SSW 9 11 5 6 1024.1 1024.2 0.0
24/03:30am -0.4 -4.7 -1.5 92 0.4 SSW 11 11 6 6 1024.0 1024.1 0.0
24/03:00am 0.1 -4.1 -1.2 91 0.5 SW 11 13 6 7 1023.8 1023.9 0.0
24/02:30am 0.6 -3.2 -1.0 89 0.6 WSW 9 9 5 5 1023.5 1023.7 0.0
24/02:00am 2.3 -1.4 -0.1 84 0.9 S 9 15 5 8 1023.5 1023.7 0.0
24/01:30am 4.0 -1.1 1.0 81 1.2 SSE 17 20 9 11 1023.4 1023.6 0.0
24/01:00am 4.4 -1.0 1.3 80 1.2 SSE 19 24 10 13 1023.4 1023.6 0.0
24/12:30am 4.5 -0.9 1.4 80 1.2 SSE 19 24 10 13 1023.6 1023.8 0.0
24/12:00am 3.3 -1.4 0.7 83 1.0 SSE 15 19 8 10 1023.6 1023.8 0.0
 
Date/Time
WST
Temp
°C
App
Temp
°C
Dew
Point
°C
Rel
Hum
%
Delta-T
°C
Wind Press
QNH
hPa
Press
MSL
hPa
Rain since
9am
mm
Dir  Spd
km/h
Gust
km/h
Spd
kts
Gust
kts
23/11:30pm 4.1 0.2 1.3 82 1.1 SSE 11 15 6 8 1023.6 1023.8 0.0
23/11:00pm 3.4 -0.2 0.8 83 1.0 SSE 9 11 5 6 1023.8 1023.9 0.0
23/10:30pm 3.6 0.1 1.0 83 1.0 S 9 13 5 7 1023.8 1023.9 0.0
23/10:00pm 4.7 0.5 1.6 80 1.2 S 13 15 7 8 1023.8 1023.9 0.0
23/09:30pm 5.5 0.9 1.8 77 1.5 S 15 17 8 9 1023.8 1023.9 0.0
23/09:00pm 6.5 1.9 1.8 72 1.9 S 15 19 8 10 1023.5 1023.7 0.0
23/08:30pm 7.7 2.8 2.0 67 2.4 SSE 17 22 9 12 1023.2 1023.4 0.0
23/08:00pm 7.1 2.8 3.2 76 1.7 S 15 19 8 10 1023.1 1023.2 0.0
23/07:30pm 7.3 3.4 3.4 76 1.7 SSE 13 17 7 9 1022.8 1022.9 0.0
23/07:00pm 8.1 4.2 3.6 73 2.0 S 13 17 7 9 1022.5 1022.6 0.0
23/06:30pm 9.1 5.2 3.3 67 2.5 S 13 17 7 9 1022.3 1022.4 0.0
23/06:00pm 9.4 5.4 2.7 63 2.9 S 13 15 7 8 1022.0 1022.1 0.0
23/05:30pm 10.3 6.0 3.3 62 3.1 S 15 19 8 10 1021.6 1021.7 0.0
23/05:00pm 11.3 5.9 1.0 49 4.4 SSE 19 22 10 12 1021.3 1021.4 0.0
23/04:30pm 12.0 6.3 2.7 53 4.1 S 22 28 12 15 1021.0 1021.1 0.0
23/04:00pm 12.8 9.1 2.6 50 4.5 SE 11 17 6 9 1020.8 1020.8 0.0
23/03:30pm 11.9 6.6 2.9 54 4.0 S 20 30 11 16 1020.8 1020.8 0.0
23/03:00pm 12.0 7.0 1.6 49 4.5 SSE 17 22 9 12 1021.0 1021.1 0.0
23/02:30pm 12.2 5.7 2.6 52 4.3 SSE 26 39 14 21 1021.0 1021.1 0.0
23/02:00pm 12.4 6.9 2.0 49 4.6 SSE 20 30 11 16 1020.7 1020.7 0.0
23/01:30pm 12.3 6.8 1.9 49 4.6 SSE 20 33 11 18 1020.8 1020.8 0.0
23/01:00pm 12.2 6.9 1.8 49 4.5 SSE 19 24 10 13 1021.0 1021.1 0.0
23/12:30pm 12.2 6.7 2.1 50 4.4 SSE 20 32 11 17 1021.4 1021.5 0.0
23/12:00pm 11.5 6.1 2.3 53 4.0 S 20 30 11 16 1021.8 1021.9 0.0
23/11:30am 11.6 6.1 2.1 52 4.2 SSE 20 32 11 17 1022.2 1022.3 0.0
23/11:00am 11.4 6.3 3.2 57 3.7 SSE 19 30 10 16 1022.4 1022.5 0.0
23/10:30am 10.0 4.4 3.7 65 2.8 SSE 22 32 12 17 1022.8 1022.9 0.0
23/10:00am 9.1 3.5 3.5 68 2.5 SSE 22 28 12 15 1022.9 1023.0 0.0
23/09:30am 7.6 2.7 4.0 78 1.6 S 19 24 10 13 1023.0 1023.1 0.0
23/09:00am 6.2 1.2 3.5 83 1.2 SSE 19 24 10 13 1023.1 1023.2 0.4
23/08:30am 4.6 0.6 3.1 90 0.6 SSE 13 19 7 10 1023.2 1023.4 0.4
23/08:00am 3.0 0.0 2.3 95 0.3 S 7 9 4 5 1022.9 1023.0 0.4
23/07:30am 1.6 -1.4 0.9 95 0.3 NW 6 7 3 4 1022.6 1022.7 0.4
23/07:00am 0.6 -2.5 -0.1 95 0.3 W 6 7 3 4 1022.4 1022.5 0.4
23/06:30am 0.2 -3.0 -0.5 95 0.3 ESE 6 7 3 4 1022.3 1022.4 0.4
23/06:00am 0.2 -1.9 -0.5 95 0.3 CALM 0 6 0 3 1022.1 1022.2 0.4
23/05:30am 0.4 -1.7 -0.5 94 0.3 CALM 0 4 0 2 1021.8 1021.9 0.4
23/05:00am 1.5 -2.1 0.6 94 0.3 S 9 13 5 7 1021.6 1021.7 0.4
23/04:30am 1.9 -2.8 1.0 94 0.3 S 15 17 8 9 1021.4 1021.5 0.4
23/04:00am 2.3 -2.7 1.4 94 0.4 S 17 20 9 11 1021.2 1021.3 0.4
23/03:30am 2.6 -2.7 1.7 94 0.4 S 19 24 10 13 1021.1 1021.2 0.4
23/03:00am 2.4 -2.2 1.5 94 0.4 SSW 15 19 8 10 1021.0 1021.1 0.4
23/02:30am 1.1 -3.4 -0.1 92 0.4 S 13 13 7 7 1021.3 1021.4 0.4
23/02:00am 2.9 -1.6 1.9 93 0.4 S 15 17 8 9 1021.2 1021.3 0.4
23/01:30am 2.9 -1.6 1.9 93 0.4 S 15 17 8 9 1021.4 1021.5 0.4
23/01:00am 2.6 -2.0 1.7 94 0.4 SSW 15 17 8 9 1021.6 1021.7 0.4
23/12:30am 1.9 -2.4 0.9 93 0.4 SSW 13 13 7 7 1021.6 1021.7 0.4
23/12:00am 2.3 -1.9 1.4 94 0.4 SSW 13 15 7 8 1021.6 1021.7 0.4
 
Date/Time
WST
Temp
°C
App
Temp
°C
Dew
Point
°C
Rel
Hum
%
Delta-T
°C
Wind Press
QNH
hPa
Press
MSL
hPa
Rain since
9am
mm
Dir  Spd
km/h
Gust
km/h
Spd
kts
Gust
kts
22/11:30pm 1.5 -2.5 0.5 93 0.4 SSW 11 13 6 7 1021.6 1021.7 0.4
22/11:00pm 2.0 -2.0 0.7 91 0.5 SSW 11 13 6 7 1021.6 1021.7 0.4
22/10:30pm 3.8 -0.2 2.6 92 0.5 S 13 15 7 8 1021.6 1021.7 0.4
22/10:00pm 3.2 -0.6 1.7 90 0.6 S 11 13 6 7 1021.6 1021.7 0.4
22/09:30pm 4.5 0.1 2.8 89 0.7 S 15 15 8 8 1021.5 1021.6 0.4
22/09:00pm 5.3 1.4 3.2 86 0.9 S 13 17 7 9 1021.4 1021.5 0.4
22/08:30pm 5.8 1.9 3.5 85 1.0 S 13 17 7 9 1021.2 1021.3 0.4
22/08:00pm 5.8 2.0 4.0 88 0.8 S 13 17 7 9 1020.9 1021.0 0.4
22/07:30pm 6.1 2.7 4.1 87 0.9 S 11 13 6 7 1020.5 1020.6 0.4
22/07:00pm 6.8 3.1 4.6 86 1.0 S 13 15 7 8 1020.1 1020.2 0.4
22/06:30pm 7.7 3.3 4.5 80 1.4 S 17 20 9 11 1019.7 1019.8 0.4
22/06:00pm 8.8 3.7 4.0 72 2.1 S 20 30 11 16 1019.2 1019.3 0.4
22/05:30pm 9.0 3.1 4.0 71 2.2 S 24 33 13 18 1018.7 1018.8 0.4
22/05:00pm 9.3 4.0 5.1 75 1.9 S 22 28 12 15 1018.3 1018.3 0.4
22/04:30pm 9.4 3.4 5.4 76 1.8 SSW 26 33 14 18 1018.2 1018.2 0.2
22/04:08pm 9.3 2.8 4.7 73 2.1 S 28 46 15 25 1017.9 1017.9 0.2
22/04:00pm 8.8 1.7 5.4 79 1.6 SSW 32 46 17 25 1017.9 1017.9 0.2
22/03:55pm 9.6 3.2 5.4 75 1.9 S 28 46 15 25 1017.7 1017.7 0.0
22/03:30pm 11.0 5.0 5.3 68 2.7 S 26 39 14 21 1017.3 1017.4 0.0
22/03:00pm 13.5 6.4 3.3 50 4.6 S 30 44 16 24 1016.8 1016.9 0.0
22/02:30pm 11.5 2.4 1.7 51 4.2 SSW 39 50 21 27 1016.8 1016.9 0.0
22/02:00pm 12.6 6.5 4.6 58 3.7 SSW 26 35 14 19 1016.6 1016.7 0.0
22/01:30pm 10.3 2.4 4.5 67 2.6 SSW 35 48 19 26 1017.1 1017.2 0.0
22/01:00pm 10.9 1.4 3.7 61 3.2 S 43 54 23 29 1017.1 1017.2 0.0
22/12:48pm 13.2 5.0 2.7 49 4.7 SSW 35 54 19 29 1016.7 1016.8 0.0
22/12:30pm 12.1 4.0 3.1 54 4.0 S 35 43 19 23 1017.0 1017.1 0.0
22/12:00pm 11.9 3.7 2.6 53 4.1 SSW 35 48 19 26 1017.4 1017.5 0.0
22/11:30am 11.1 2.6 2.9 57 3.6 SSW 37 54 20 29 1017.7 1017.7 0.0
22/11:25am 10.8 2.8 3.6 61 3.2 SSW 35 54 19 29 1017.5 1017.6 0.0
22/11:00am 11.4 2.7 3.9 60 3.4 S 39 50 21 27 1017.7 1017.7 0.0
22/10:30am 10.7 2.4 4.2 64 3.0 S 37 50 20 27 1017.7 1017.7 0.0
22/10:14am 9.8 2.3 4.2 68 2.5 SSW 33 52 18 28 1017.5 1017.6 0.0
22/10:00am 10.4 3.2 5.2 70 2.4 SSW 32 43 17 23 1017.4 1017.5 0.0
22/09:30am 9.8 1.9 4.6 70 2.4 SSW 35 54 19 29 1017.3 1017.4 0.0
22/09:27am 9.7 1.8 4.5 70 2.4 SSW 35 54 19 29 1017.2 1017.3 0.0
22/09:00am 9.4 1.7 5.4 76 1.8 SSW 35 46 19 25 1016.9 1017.0 1.4
22/08:30am 8.8 2.1 5.4 79 1.6 SSW 30 41 16 22 1017.0 1017.1 1.4
22/08:00am 7.9 1.1 5.0 82 1.3 SSW 30 43 16 23 1016.7 1016.8 1.4
22/07:30am 8.0 1.7 5.6 85 1.1 SSW 28 35 15 19 1016.4 1016.5 1.4
22/07:00am 7.6 1.7 5.6 87 0.9 SSW 26 41 14 22 1015.9 1016.0 1.4
22/06:30am 7.6 2.9 6.2 91 0.6 SSW 20 28 11 15 1015.5 1015.5 1.4
22/06:00am 7.6 1.8 6.2 91 0.6 SSW 26 35 14 19 1015.2 1015.2 1.2
22/05:30am 7.9 2.8 6.0 88 0.9 SSW 22 30 12 16 1014.7 1014.7 1.2
22/05:00am 7.9 2.4 5.9 87 0.9 SSW 24 32 13 17 1014.3 1014.4 1.2
22/04:30am 7.9 1.6 5.5 85 1.1 SSW 28 37 15 20 1014.0 1014.1 1.2
22/04:00am 7.9 2.0 5.9 87 0.9 SSW 26 35 14 19 1013.8 1013.9 1.2
22/03:30am 7.9 2.8 6.0 88 0.9 SSW 22 32 12 17 1013.7 1013.8 1.2
22/03:00am 8.2 2.8 6.2 87 0.9 SSW 24 30 13 16 1013.5 1013.6 1.2
22/02:30am 8.8 5.8 7.7 93 0.5 WSW 13 17 7 9 1013.4 1013.4 1.2
22/02:00am 8.9 5.9 7.7 92 0.6 WSW 13 17 7 9 1013.4 1013.4 1.0
22/01:30am 8.9 5.9 7.7 92 0.6 WSW 13 17 7 9 1013.5 1013.6 1.0
22/01:00am 8.8 6.5 7.6 92 0.6 W 9 13 5 7 1013.8 1013.9 0.8
22/12:30am 8.6 8.0 7.4 92 0.6 CALM 0 0 0 0 1013.9 1014.0 0.8
22/12:00am 8.5 6.7 7.3 92 0.6 N 6 7 3 4 1013.9 1014.0 0.8
 
Date/Time
WST
Temp
°C
App
Temp
°C
Dew
Point
°C
Rel
Hum
%
Delta-T
°C
Wind Press
QNH
hPa
Press
MSL
hPa
Rain since
9am
mm
Dir  Spd
km/h
Gust
km/h
Spd
kts
Gust
kts
21/11:30pm 8.3 5.9 6.9 91 0.7 NW 9 13 5 7 1014.1 1014.2 0.8
21/11:00pm 8.7 6.3 7.0 89 0.8 WNW 9 13 5 7 1014.4 1014.5 0.8
21/10:30pm 9.2 5.7 7.2 87 1.0 WNW 15 19 8 10 1014.7 1014.7 0.6
21/10:00pm 9.6 3.6 6.9 83 1.3 WSW 28 35 15 19 1015.1 1015.1 0.4
21/09:51pm 9.9 5.0 6.8 81 1.5 WSW 22 41 12 22 1015.2 1015.2 0.2
21/09:30pm 9.6 7.5 5.8 77 1.8 NNW 6 6 3 3 1014.7 1014.7 0.0
21/09:00pm 9.7 7.5 5.5 75 1.9 NNW 6 7 3 4 1014.9 1014.9 0.0
21/08:30pm 9.1 6.8 5.5 78 1.7 NNW 7 7 4 4 1014.9 1014.9 0.0

Other Formats:

Comma delimited format used in spreadsheet applications
http://www.bom.gov.au/fwo/IDW60801/IDW60801.95634.axf

JavaScript Object Notation format (JSON) in row-major order
http://www.bom.gov.au/fwo/IDW60801/IDW60801.95634.json